sensor_id;sensor_type;location;lat;lon;timestamp;temperature;humidity
11812;DHT22;5963;50.184;9.162;2023-07-20T00:00:35;20.30;99.90
11812;DHT22;5963;50.184;9.162;2023-07-20T00:03:14;20.20;99.90
11812;DHT22;5963;50.184;9.162;2023-07-20T00:05:48;20.20;99.90
11812;DHT22;5963;50.184;9.162;2023-07-20T00:08:17;20.20;99.90
11812;DHT22;5963;50.184;9.162;2023-07-20T00:10:47;20.20;99.90
11812;DHT22;5963;50.184;9.162;2023-07-20T00:13:17;20.20;99.90
11812;DHT22;5963;50.184;9.162;2023-07-20T00:15:50;20.10;99.90
11812;DHT22;5963;50.184;9.162;2023-07-20T00:18:21;20.10;99.90
11812;DHT22;5963;50.184;9.162;2023-07-20T00:20:51;20.00;99.90
11812;DHT22;5963;50.184;9.162;2023-07-20T00:23:21;20.00;99.90
11812;DHT22;5963;50.184;9.162;2023-07-20T00:25:51;19.90;99.90
11812;DHT22;5963;50.184;9.162;2023-07-20T00:28:21;19.80;99.90
11812;DHT22;5963;50.184;9.162;2023-07-20T00:30:51;19.90;99.90
11812;DHT22;5963;50.184;9.162;2023-07-20T00:33:22;19.90;99.90
11812;DHT22;5963;50.184;9.162;2023-07-20T00:35:51;19.80;99.90
11812;DHT22;5963;50.184;9.162;2023-07-20T00:38:21;19.90;99.90
11812;DHT22;5963;50.184;9.162;2023-07-20T00:40:54;19.80;99.90
11812;DHT22;5963;50.184;9.162;2023-07-20T00:43:24;19.70;99.90
11812;DHT22;5963;50.184;9.162;2023-07-20T00:45:54;19.60;99.90
11812;DHT22;5963;50.184;9.162;2023-07-20T00:48:32;19.70;99.90
11812;DHT22;5963;50.184;9.162;2023-07-20T00:51:02;19.80;99.90
11812;DHT22;5963;50.184;9.162;2023-07-20T00:53:32;19.70;99.90
11812;DHT22;5963;50.184;9.162;2023-07-20T00:56:02;19.60;99.90
11812;DHT22;5963;50.184;9.162;2023-07-20T00:58:37;19.50;99.90
11812;DHT22;5963;50.184;9.162;2023-07-20T01:01:07;19.40;99.90
11812;DHT22;5963;50.184;9.162;2023-07-20T01:03:40;19.50;99.90
11812;DHT22;5963;50.184;9.162;2023-07-20T01:06:22;19.50;99.90
11812;DHT22;5963;50.184;9.162;2023-07-20T01:09:00;19.50;99.90
11812;DHT22;5963;50.184;9.162;2023-07-20T01:11:36;19.50;99.90
11812;DHT22;5963;50.184;9.162;2023-07-20T01:14:07;19.50;99.90
11812;DHT22;5963;50.184;9.162;2023-07-20T01:16:37;19.30;99.90
11812;DHT22;5963;50.184;9.162;2023-07-20T01:19:08;19.40;99.90
11812;DHT22;5963;50.184;9.162;2023-07-20T01:21:43;19.30;99.90
11812;DHT22;5963;50.184;9.162;2023-07-20T01:27:29;19.10;99.90
11812;DHT22;5963;50.184;9.162;2023-07-20T01:30:25;19.20;99.90
11812;DHT22;5963;50.184;9.162;2023-07-20T01:33:02;19.10;99.90
11812;DHT22;5963;50.184;9.162;2023-07-20T01:35:36;19.10;99.90
11812;DHT22;5963;50.184;9.162;2023-07-20T01:38:08;19.00;99.90
11812;DHT22;5963;50.184;9.162;2023-07-20T01:40:39;19.00;99.90
11812;DHT22;5963;50.184;9.162;2023-07-20T01:43:10;19.00;99.90
11812;DHT22;5963;50.184;9.162;2023-07-20T01:45:41;18.90;99.90
11812;DHT22;5963;50.184;9.162;2023-07-20T01:48:13;18.90;99.90
11812;DHT22;5963;50.184;9.162;2023-07-20T01:50:45;18.80;99.90
11812;DHT22;5963;50.184;9.162;2023-07-20T01:53:15;18.60;99.90
11812;DHT22;5963;50.184;9.162;2023-07-20T01:55:45;18.40;99.90
11812;DHT22;5963;50.184;9.162;2023-07-20T01:58:15;18.30;99.90
11812;DHT22;5963;50.184;9.162;2023-07-20T02:00:45;18.30;99.90
11812;DHT22;5963;50.184;9.162;2023-07-20T02:03:16;18.30;99.90
11812;DHT22;5963;50.184;9.162;2023-07-20T02:05:46;18.30;99.90
11812;DHT22;5963;50.184;9.162;2023-07-20T02:08:16;18.20;99.90
11812;DHT22;5963;50.184;9.162;2023-07-20T02:10:47;18.30;99.90
11812;DHT22;5963;50.184;9.162;2023-07-20T02:13:17;18.30;99.90
11812;DHT22;5963;50.184;9.162;2023-07-20T02:15:47;18.20;99.90
11812;DHT22;5963;50.184;9.162;2023-07-20T02:18:19;18.10;99.90
11812;DHT22;5963;50.184;9.162;2023-07-20T02:20:49;18.10;99.90
11812;DHT22;5963;50.184;9.162;2023-07-20T02:23:18;18.10;99.90
11812;DHT22;5963;50.184;9.162;2023-07-20T02:25:48;18.10;99.90
11812;DHT22;5963;50.184;9.162;2023-07-20T02:28:19;18.00;99.90
11812;DHT22;5963;50.184;9.162;2023-07-20T02:30:49;18.00;99.90
11812;DHT22;5963;50.184;9.162;2023-07-20T02:33:20;18.10;99.90
11812;DHT22;5963;50.184;9.162;2023-07-20T02:35:50;18.00;99.90
11812;DHT22;5963;50.184;9.162;2023-07-20T02:38:20;17.90;99.90
11812;DHT22;5963;50.184;9.162;2023-07-20T02:40:50;18.00;99.90
11812;DHT22;5963;50.184;9.162;2023-07-20T02:43:20;17.90;99.90
11812;DHT22;5963;50.184;9.162;2023-07-20T02:45:50;18.00;99.90
11812;DHT22;5963;50.184;9.162;2023-07-20T02:48:21;18.00;99.90
11812;DHT22;5963;50.184;9.162;2023-07-20T02:50:51;18.00;99.90
11812;DHT22;5963;50.184;9.162;2023-07-20T02:53:21;17.80;99.90
11812;DHT22;5963;50.184;9.162;2023-07-20T02:55:51;17.80;99.90
11812;DHT22;5963;50.184;9.162;2023-07-20T02:58:20;17.50;99.90
11812;DHT22;5963;50.184;9.162;2023-07-20T03:00:50;17.40;99.90
11812;DHT22;5963;50.184;9.162;2023-07-20T03:03:23;17.50;99.90
11812;DHT22;5963;50.184;9.162;2023-07-20T03:05:53;17.40;99.90
11812;DHT22;5963;50.184;9.162;2023-07-20T03:08:24;17.30;99.90
11812;DHT22;5963;50.184;9.162;2023-07-20T03:10:54;17.30;99.90
11812;DHT22;5963;50.184;9.162;2023-07-20T03:13:24;17.40;99.90
11812;DHT22;5963;50.184;9.162;2023-07-20T03:15:54;17.30;99.90
11812;DHT22;5963;50.184;9.162;2023-07-20T03:18:31;17.40;99.90
11812;DHT22;5963;50.184;9.162;2023-07-20T03:21:03;17.40;99.90
11812;DHT22;5963;50.184;9.162;2023-07-20T03:23:32;17.50;99.90
11812;DHT22;5963;50.184;9.162;2023-07-20T03:26:02;17.50;99.90
11812;DHT22;5963;50.184;9.162;2023-07-20T03:28:33;17.50;99.90
11812;DHT22;5963;50.184;9.162;2023-07-20T03:31:03;17.50;99.90
11812;DHT22;5963;50.184;9.162;2023-07-20T03:33:37;17.60;99.90
11812;DHT22;5963;50.184;9.162;2023-07-20T03:36:10;17.70;99.90
11812;DHT22;5963;50.184;9.162;2023-07-20T03:38:42;17.60;99.90
11812;DHT22;5963;50.184;9.162;2023-07-20T03:41:12;17.70;99.90
11812;DHT22;5963;50.184;9.162;2023-07-20T03:43:44;17.80;99.90
11812;DHT22;5963;50.184;9.162;2023-07-20T03:46:21;17.70;99.90
11812;DHT22;5963;50.184;9.162;2023-07-20T03:48:57;17.70;99.90
11812;DHT22;5963;50.184;9.162;2023-07-20T03:51:31;17.70;99.90
11812;DHT22;5963;50.184;9.162;2023-07-20T03:54:10;17.60;99.90
11812;DHT22;5963;50.184;9.162;2023-07-20T03:56:43;17.50;99.90
11812;DHT22;5963;50.184;9.162;2023-07-20T03:59:13;17.30;99.90
11812;DHT22;5963;50.184;9.162;2023-07-20T04:01:44;17.20;99.90
11812;DHT22;5963;50.184;9.162;2023-07-20T04:04:17;17.20;99.90
11812;DHT22;5963;50.184;9.162;2023-07-20T04:06:48;17.00;99.90
11812;DHT22;5963;50.184;9.162;2023-07-20T04:09:17;17.00;99.90
11812;DHT22;5963;50.184;9.162;2023-07-20T04:11:47;16.80;99.90
11812;DHT22;5963;50.184;9.162;2023-07-20T04:14:17;16.80;99.90
11812;DHT22;5963;50.184;9.162;2023-07-20T04:16:49;16.80;99.90
11812;DHT22;5963;50.184;9.162;2023-07-20T04:19:21;16.70;99.90
11812;DHT22;5963;50.184;9.162;2023-07-20T04:21:51;16.80;99.90
11812;DHT22;5963;50.184;9.162;2023-07-20T04:24:23;17.00;99.90
11812;DHT22;5963;50.184;9.162;2023-07-20T04:26:54;17.00;99.90
11812;DHT22;5963;50.184;9.162;2023-07-20T04:29:24;16.90;99.90
11812;DHT22;5963;50.184;9.162;2023-07-20T04:31:55;17.00;99.90
11812;DHT22;5963;50.184;9.162;2023-07-20T04:34:26;17.00;99.90
11812;DHT22;5963;50.184;9.162;2023-07-20T04:36:56;17.10;99.90
11812;DHT22;5963;50.184;9.162;2023-07-20T04:39:27;17.10;99.90
11812;DHT22;5963;50.184;9.162;2023-07-20T04:42:02;17.30;99.90
11812;DHT22;5963;50.184;9.162;2023-07-20T04:44:32;17.20;99.90
11812;DHT22;5963;50.184;9.162;2023-07-20T04:47:02;16.80;99.90
11812;DHT22;5963;50.184;9.162;2023-07-20T04:49:34;16.60;99.90
11812;DHT22;5963;50.184;9.162;2023-07-20T04:52:03;16.40;99.90
11812;DHT22;5963;50.184;9.162;2023-07-20T04:54:33;16.50;99.90
11812;DHT22;5963;50.184;9.162;2023-07-20T04:57:03;16.80;99.90
11812;DHT22;5963;50.184;9.162;2023-07-20T04:59:33;17.00;99.90
11812;DHT22;5963;50.184;9.162;2023-07-20T05:02:05;17.20;99.90
11812;DHT22;5963;50.184;9.162;2023-07-20T05:04:37;17.50;99.90
11812;DHT22;5963;50.184;9.162;2023-07-20T05:07:07;17.90;99.90
11812;DHT22;5963;50.184;9.162;2023-07-20T05:09:37;18.50;99.90
11812;DHT22;5963;50.184;9.162;2023-07-20T05:12:08;18.90;99.90
11812;DHT22;5963;50.184;9.162;2023-07-20T05:14:38;19.20;99.90
11812;DHT22;5963;50.184;9.162;2023-07-20T05:17:08;19.50;99.90
11812;DHT22;5963;50.184;9.162;2023-07-20T05:19:39;19.80;99.90
11812;DHT22;5963;50.184;9.162;2023-07-20T05:22:15;19.70;99.90
11812;DHT22;5963;50.184;9.162;2023-07-20T05:24:52;19.40;99.90
11812;DHT22;5963;50.184;9.162;2023-07-20T05:27:22;19.20;99.90
11812;DHT22;5963;50.184;9.162;2023-07-20T05:29:55;19.00;99.90
11812;DHT22;5963;50.184;9.162;2023-07-20T05:32:27;19.00;99.90
11812;DHT22;5963;50.184;9.162;2023-07-20T05:35:02;18.70;99.90
11812;DHT22;5963;50.184;9.162;2023-07-20T05:37:35;18.60;99.90
11812;DHT22;5963;50.184;9.162;2023-07-20T05:40:07;18.50;99.90
11812;DHT22;5963;50.184;9.162;2023-07-20T05:42:38;18.50;99.90
11812;DHT22;5963;50.184;9.162;2023-07-20T05:45:17;18.30;99.90
11812;DHT22;5963;50.184;9.162;2023-07-20T05:47:48;18.60;99.90
11812;DHT22;5963;50.184;9.162;2023-07-20T05:50:20;18.40;99.90
11812;DHT22;5963;50.184;9.162;2023-07-20T05:52:52;18.60;99.90
11812;DHT22;5963;50.184;9.162;2023-07-20T05:55:22;18.40;99.90
11812;DHT22;5963;50.184;9.162;2023-07-20T05:57:52;18.70;99.90
11812;DHT22;5963;50.184;9.162;2023-07-20T06:00:24;18.80;99.90
11812;DHT22;5963;50.184;9.162;2023-07-20T06:02:55;19.00;99.90
11812;DHT22;5963;50.184;9.162;2023-07-20T06:05:34;19.10;99.90
11812;DHT22;5963;50.184;9.162;2023-07-20T06:08:04;18.90;99.90
11812;DHT22;5963;50.184;9.162;2023-07-20T06:10:34;19.10;99.90
11812;DHT22;5963;50.184;9.162;2023-07-20T06:13:07;19.50;99.90
11812;DHT22;5963;50.184;9.162;2023-07-20T06:15:41;19.70;99.90
11812;DHT22;5963;50.184;9.162;2023-07-20T06:18:12;19.80;99.90
11812;DHT22;5963;50.184;9.162;2023-07-20T06:20:49;19.60;99.90
11812;DHT22;5963;50.184;9.162;2023-07-20T06:23:20;19.30;99.90
11812;DHT22;5963;50.184;9.162;2023-07-20T06:25:52;19.30;99.90
11812;DHT22;5963;50.184;9.162;2023-07-20T06:28:22;18.90;99.90
11812;DHT22;5963;50.184;9.162;2023-07-20T06:31:01;18.60;99.90
11812;DHT22;5963;50.184;9.162;2023-07-20T06:33:32;18.70;99.90
11812;DHT22;5963;50.184;9.162;2023-07-20T06:36:05;18.40;99.90
11812;DHT22;5963;50.184;9.162;2023-07-20T06:38:37;18.40;99.90
11812;DHT22;5963;50.184;9.162;2023-07-20T06:41:31;18.50;99.90
11812;DHT22;5963;50.184;9.162;2023-07-20T06:44:06;18.50;99.90
11812;DHT22;5963;50.184;9.162;2023-07-20T06:46:36;18.70;99.90
11812;DHT22;5963;50.184;9.162;2023-07-20T06:49:08;18.90;99.90
11812;DHT22;5963;50.184;9.162;2023-07-20T06:51:51;19.10;99.90
11812;DHT22;5963;50.184;9.162;2023-07-20T06:54:24;19.10;99.90
11812;DHT22;5963;50.184;9.162;2023-07-20T06:56:54;19.10;99.90
11812;DHT22;5963;50.184;9.162;2023-07-20T06:59:43;19.60;99.90
11812;DHT22;5963;50.184;9.162;2023-07-20T07:02:19;20.20;99.90
11812;DHT22;5963;50.184;9.162;2023-07-20T07:04:53;20.20;99.90
11812;DHT22;5963;50.184;9.162;2023-07-20T07:07:28;20.70;99.90
11812;DHT22;5963;50.184;9.162;2023-07-20T07:09:58;20.70;99.90
11812;DHT22;5963;50.184;9.162;2023-07-20T07:12:31;20.40;99.90
11812;DHT22;5963;50.184;9.162;2023-07-20T07:15:03;20.30;99.90
11812;DHT22;5963;50.184;9.162;2023-07-20T07:17:39;19.70;99.90
11812;DHT22;5963;50.184;9.162;2023-07-20T07:20:10;19.80;99.90
11812;DHT22;5963;50.184;9.162;2023-07-20T07:22:58;19.90;99.90
11812;DHT22;5963;50.184;9.162;2023-07-20T07:25:33;19.90;99.90
11812;DHT22;5963;50.184;9.162;2023-07-20T07:28:06;19.90;99.90
11812;DHT22;5963;50.184;9.162;2023-07-20T07:30:36;20.00;99.90
11812;DHT22;5963;50.184;9.162;2023-07-20T07:33:07;19.90;99.90
11812;DHT22;5963;50.184;9.162;2023-07-20T07:35:37;20.00;99.90
11812;DHT22;5963;50.184;9.162;2023-07-20T07:38:09;20.50;99.90
11812;DHT22;5963;50.184;9.162;2023-07-20T07:40:59;20.80;99.90
11812;DHT22;5963;50.184;9.162;2023-07-20T07:43:29;20.50;99.90
11812;DHT22;5963;50.184;9.162;2023-07-20T07:46:05;21.00;99.90
11812;DHT22;5963;50.184;9.162;2023-07-20T07:48:35;21.60;99.90
11812;DHT22;5963;50.184;9.162;2023-07-20T07:51:05;22.20;99.90
11812;DHT22;5963;50.184;9.162;2023-07-20T07:53:37;22.60;99.90
11812;DHT22;5963;50.184;9.162;2023-07-20T07:56:10;22.90;99.90
11812;DHT22;5963;50.184;9.162;2023-07-20T07:58:40;22.10;99.90
11812;DHT22;5963;50.184;9.162;2023-07-20T08:01:16;21.80;99.90
11812;DHT22;5963;50.184;9.162;2023-07-20T08:03:53;21.60;99.90
11812;DHT22;5963;50.184;9.162;2023-07-20T08:06:29;21.00;99.90
11812;DHT22;5963;50.184;9.162;2023-07-20T08:09:04;20.50;99.90
11812;DHT22;5963;50.184;9.162;2023-07-20T08:11:35;20.70;99.90
11812;DHT22;5963;50.184;9.162;2023-07-20T08:14:05;21.00;99.90
11812;DHT22;5963;50.184;9.162;2023-07-20T08:16:38;21.00;99.90
11812;DHT22;5963;50.184;9.162;2023-07-20T08:19:12;21.10;99.90
11812;DHT22;5963;50.184;9.162;2023-07-20T08:21:42;21.10;99.90
11812;DHT22;5963;50.184;9.162;2023-07-20T08:24:15;20.80;99.90
11812;DHT22;5963;50.184;9.162;2023-07-20T08:26:58;20.80;99.90
11812;DHT22;5963;50.184;9.162;2023-07-20T08:29:28;20.70;99.90
11812;DHT22;5963;50.184;9.162;2023-07-20T08:31:58;20.80;99.90
11812;DHT22;5963;50.184;9.162;2023-07-20T08:34:31;20.60;99.90
11812;DHT22;5963;50.184;9.162;2023-07-20T08:37:06;20.60;99.90
11812;DHT22;5963;50.184;9.162;2023-07-20T08:39:40;20.60;99.90
11812;DHT22;5963;50.184;9.162;2023-07-20T08:42:12;20.80;99.90
11812;DHT22;5963;50.184;9.162;2023-07-20T08:44:47;20.80;99.90
11812;DHT22;5963;50.184;9.162;2023-07-20T08:47:19;20.90;99.90
11812;DHT22;5963;50.184;9.162;2023-07-20T08:49:53;21.20;99.90
11812;DHT22;5963;50.184;9.162;2023-07-20T08:52:24;22.00;99.90
11812;DHT22;5963;50.184;9.162;2023-07-20T08:54:56;22.70;99.90
11812;DHT22;5963;50.184;9.162;2023-07-20T08:57:27;22.70;99.90
11812;DHT22;5963;50.184;9.162;2023-07-20T08:59:57;23.00;99.90
11812;DHT22;5963;50.184;9.162;2023-07-20T09:02:30;23.20;99.90
11812;DHT22;5963;50.184;9.162;2023-07-20T09:05:02;23.20;99.90
11812;DHT22;5963;50.184;9.162;2023-07-20T09:07:34;23.40;99.90
11812;DHT22;5963;50.184;9.162;2023-07-20T09:10:08;23.60;99.90
11812;DHT22;5963;50.184;9.162;2023-07-20T09:12:39;23.70;99.90
11812;DHT22;5963;50.184;9.162;2023-07-20T09:15:12;23.80;99.90
11812;DHT22;5963;50.184;9.162;2023-07-20T09:17:48;23.80;99.90
11812;DHT22;5963;50.184;9.162;2023-07-20T09:20:19;24.10;99.90
11812;DHT22;5963;50.184;9.162;2023-07-20T09:22:52;24.40;99.90
11812;DHT22;5963;50.184;9.162;2023-07-20T09:25:25;24.00;99.90
11812;DHT22;5963;50.184;9.162;2023-07-20T09:28:01;23.50;99.90
11812;DHT22;5963;50.184;9.162;2023-07-20T09:30:33;23.20;99.90
11812;DHT22;5963;50.184;9.162;2023-07-20T09:33:03;22.80;99.90
11812;DHT22;5963;50.184;9.162;2023-07-20T09:35:36;22.20;99.90
11812;DHT22;5963;50.184;9.162;2023-07-20T09:38:11;21.70;99.90
11812;DHT22;5963;50.184;9.162;2023-07-20T09:40:50;22.00;99.90
11812;DHT22;5963;50.184;9.162;2023-07-20T09:43:23;22.70;99.90
11812;DHT22;5963;50.184;9.162;2023-07-20T09:46:07;23.40;99.90
11812;DHT22;5963;50.184;9.162;2023-07-20T09:48:40;24.00;99.90
11812;DHT22;5963;50.184;9.162;2023-07-20T09:51:32;24.10;99.90
11812;DHT22;5963;50.184;9.162;2023-07-20T09:54:04;22.50;99.90
11812;DHT22;5963;50.184;9.162;2023-07-20T09:56:36;22.90;99.90
11812;DHT22;5963;50.184;9.162;2023-07-20T09:59:07;22.70;99.90
11812;DHT22;5963;50.184;9.162;2023-07-20T10:01:43;22.90;99.90
11812;DHT22;5963;50.184;9.162;2023-07-20T10:04:14;22.80;99.90
11812;DHT22;5963;50.184;9.162;2023-07-20T10:06:48;22.70;99.90
11812;DHT22;5963;50.184;9.162;2023-07-20T10:09:20;22.90;99.90
11812;DHT22;5963;50.184;9.162;2023-07-20T10:11:53;23.30;99.90
11812;DHT22;5963;50.184;9.162;2023-07-20T10:14:48;23.40;99.90
11812;DHT22;5963;50.184;9.162;2023-07-20T10:17:40;23.70;99.90
11812;DHT22;5963;50.184;9.162;2023-07-20T10:20:24;23.80;99.90
11812;DHT22;5963;50.184;9.162;2023-07-20T10:22:55;23.60;99.90
11812;DHT22;5963;50.184;9.162;2023-07-20T10:25:35;23.70;99.90
11812;DHT22;5963;50.184;9.162;2023-07-20T10:28:10;24.20;99.90
11812;DHT22;5963;50.184;9.162;2023-07-20T10:30:40;24.60;99.90
11812;DHT22;5963;50.184;9.162;2023-07-20T10:33:11;24.60;99.90
11812;DHT22;5963;50.184;9.162;2023-07-20T10:35:55;24.90;99.90
11812;DHT22;5963;50.184;9.162;2023-07-20T10:38:52;25.10;99.90
11812;DHT22;5963;50.184;9.162;2023-07-20T10:41:28;25.20;99.90
11812;DHT22;5963;50.184;9.162;2023-07-20T10:44:03;25.70;99.90
11812;DHT22;5963;50.184;9.162;2023-07-20T10:46:58;24.90;99.90
11812;DHT22;5963;50.184;9.162;2023-07-20T10:49:59;25.00;99.90
11812;DHT22;5963;50.184;9.162;2023-07-20T10:52:26;25.70;99.90
11812;DHT22;5963;50.184;9.162;2023-07-20T10:55:16;25.10;99.90
11812;DHT22;5963;50.184;9.162;2023-07-20T10:58:06;24.60;99.90
11812;DHT22;5963;50.184;9.162;2023-07-20T11:01:06;25.50;99.90
11812;DHT22;5963;50.184;9.162;2023-07-20T11:03:42;26.00;99.90
11812;DHT22;5963;50.184;9.162;2023-07-20T11:06:34;25.50;99.90
11812;DHT22;5963;50.184;9.162;2023-07-20T11:09:10;25.20;99.90
11812;DHT22;5963;50.184;9.162;2023-07-20T11:11:44;26.20;99.90
11812;DHT22;5963;50.184;9.162;2023-07-20T11:14:27;26.80;99.90
11812;DHT22;5963;50.184;9.162;2023-07-20T11:17:20;26.30;99.90
11812;DHT22;5963;50.184;9.162;2023-07-20T11:19:52;26.70;99.90
11812;DHT22;5963;50.184;9.162;2023-07-20T11:22:39;26.90;99.90
11812;DHT22;5963;50.184;9.162;2023-07-20T11:25:21;26.80;99.90
11812;DHT22;5963;50.184;9.162;2023-07-20T11:27:52;26.10;99.90
11812;DHT22;5963;50.184;9.162;2023-07-20T11:30:24;26.00;99.90
11812;DHT22;5963;50.184;9.162;2023-07-20T11:33:10;25.70;99.90
11812;DHT22;5963;50.184;9.162;2023-07-20T11:35:44;26.20;99.90
11812;DHT22;5963;50.184;9.162;2023-07-20T11:38:17;26.50;99.90
11812;DHT22;5963;50.184;9.162;2023-07-20T11:40:48;26.30;99.90
11812;DHT22;5963;50.184;9.162;2023-07-20T11:43:19;26.60;99.80
11812;DHT22;5963;50.184;9.162;2023-07-20T11:45:55;27.00;99.50
11812;DHT22;5963;50.184;9.162;2023-07-20T11:48:44;27.30;99.40
11812;DHT22;5963;50.184;9.162;2023-07-20T11:51:24;27.10;98.60
11812;DHT22;5963;50.184;9.162;2023-07-20T11:53:54;26.60;99.00
11812;DHT22;5963;50.184;9.162;2023-07-20T11:56:32;26.40;99.60
11812;DHT22;5963;50.184;9.162;2023-07-20T11:59:12;26.30;98.90
11812;DHT22;5963;50.184;9.162;2023-07-20T12:01:44;26.60;98.90
11812;DHT22;5963;50.184;9.162;2023-07-20T12:04:20;26.70;98.90
11812;DHT22;5963;50.184;9.162;2023-07-20T12:06:56;26.20;98.70
11812;DHT22;5963;50.184;9.162;2023-07-20T12:09:26;26.10;98.50
11812;DHT22;5963;50.184;9.162;2023-07-20T12:12:20;26.00;98.80
11812;DHT22;5963;50.184;9.162;2023-07-20T12:14:50;25.70;98.70
11812;DHT22;5963;50.184;9.162;2023-07-20T12:17:23;25.50;98.90
11812;DHT22;5963;50.184;9.162;2023-07-20T12:20:03;25.20;98.50
11812;DHT22;5963;50.184;9.162;2023-07-20T12:22:41;24.80;99.20
11812;DHT22;5963;50.184;9.162;2023-07-20T12:25:12;24.80;99.40
11812;DHT22;5963;50.184;9.162;2023-07-20T12:27:46;24.60;99.20
11812;DHT22;5963;50.184;9.162;2023-07-20T12:30:17;24.60;99.40
11812;DHT22;5963;50.184;9.162;2023-07-20T12:32:47;24.60;98.50
11812;DHT22;5963;50.184;9.162;2023-07-20T12:35:31;24.50;99.30
11812;DHT22;5963;50.184;9.162;2023-07-20T12:38:01;24.20;99.60
11812;DHT22;5963;50.184;9.162;2023-07-20T12:40:35;23.80;99.90
11812;DHT22;5963;50.184;9.162;2023-07-20T12:43:05;24.00;99.90
11812;DHT22;5963;50.184;9.162;2023-07-20T12:45:36;24.50;99.90
11812;DHT22;5963;50.184;9.162;2023-07-20T12:48:11;24.40;99.50
11812;DHT22;5963;50.184;9.162;2023-07-20T12:50:49;24.50;99.50
11812;DHT22;5963;50.184;9.162;2023-07-20T12:53:18;24.70;99.40
11812;DHT22;5963;50.184;9.162;2023-07-20T12:55:56;24.80;99.60
11812;DHT22;5963;50.184;9.162;2023-07-20T12:58:51;24.90;99.30
11812;DHT22;5963;50.184;9.162;2023-07-20T13:01:24;24.70;99.10
11812;DHT22;5963;50.184;9.162;2023-07-20T13:04:13;24.80;99.70
11812;DHT22;5963;50.184;9.162;2023-07-20T13:06:45;24.70;99.10
11812;DHT22;5963;50.184;9.162;2023-07-20T13:09:16;24.40;98.70
11812;DHT22;5963;50.184;9.162;2023-07-20T13:11:48;24.70;99.40
11812;DHT22;5963;50.184;9.162;2023-07-20T13:14:44;24.90;98.50
11812;DHT22;5963;50.184;9.162;2023-07-20T13:17:14;25.00;98.80
11812;DHT22;5963;50.184;9.162;2023-07-20T13:19:57;25.20;97.60
11812;DHT22;5963;50.184;9.162;2023-07-20T13:22:35;25.20;96.40
11812;DHT22;5963;50.184;9.162;2023-07-20T13:25:06;25.10;97.00
11812;DHT22;5963;50.184;9.162;2023-07-20T13:27:42;25.20;96.70
11812;DHT22;5963;50.184;9.162;2023-07-20T13:30:15;24.90;96.40
11812;DHT22;5963;50.184;9.162;2023-07-20T13:32:55;25.10;96.60
11812;DHT22;5963;50.184;9.162;2023-07-20T13:35:34;25.10;96.30
11812;DHT22;5963;50.184;9.162;2023-07-20T13:38:08;25.30;96.00
11812;DHT22;5963;50.184;9.162;2023-07-20T13:40:53;25.50;95.40
11812;DHT22;5963;50.184;9.162;2023-07-20T13:43:34;24.90;95.10
11812;DHT22;5963;50.184;9.162;2023-07-20T13:46:05;24.90;95.60
11812;DHT22;5963;50.184;9.162;2023-07-20T13:48:35;24.90;95.50
11812;DHT22;5963;50.184;9.162;2023-07-20T13:51:05;25.00;95.50
11812;DHT22;5963;50.184;9.162;2023-07-20T13:53:38;25.50;94.20
11812;DHT22;5963;50.184;9.162;2023-07-20T13:56:15;25.60;93.70
11812;DHT22;5963;50.184;9.162;2023-07-20T13:58:50;25.50;94.30
11812;DHT22;5963;50.184;9.162;2023-07-20T14:01:34;25.80;93.70
11812;DHT22;5963;50.184;9.162;2023-07-20T14:04:11;25.90;93.50
11812;DHT22;5963;50.184;9.162;2023-07-20T14:06:45;25.80;93.40
11812;DHT22;5963;50.184;9.162;2023-07-20T14:09:17;26.00;93.60
11812;DHT22;5963;50.184;9.162;2023-07-20T14:11:51;25.80;92.80
11812;DHT22;5963;50.184;9.162;2023-07-20T14:14:24;25.90;94.10
11812;DHT22;5963;50.184;9.162;2023-07-20T14:16:58;26.60;93.60
11812;DHT22;5963;50.184;9.162;2023-07-20T14:19:29;26.10;92.50
11812;DHT22;5963;50.184;9.162;2023-07-20T14:22:00;26.30;92.30
11812;DHT22;5963;50.184;9.162;2023-07-20T14:24:41;26.90;91.90
11812;DHT22;5963;50.184;9.162;2023-07-20T14:27:25;27.20;91.70
11812;DHT22;5963;50.184;9.162;2023-07-20T14:30:02;27.50;91.00
11812;DHT22;5963;50.184;9.162;2023-07-20T14:32:35;27.20;90.90
11812;DHT22;5963;50.184;9.162;2023-07-20T14:35:17;27.30;91.20
11812;DHT22;5963;50.184;9.162;2023-07-20T14:37:49;26.90;90.40
11812;DHT22;5963;50.184;9.162;2023-07-20T14:40:23;26.80;90.00
11812;DHT22;5963;50.184;9.162;2023-07-20T14:42:58;26.70;89.90
11812;DHT22;5963;50.184;9.162;2023-07-20T14:45:29;26.60;89.70
11812;DHT22;5963;50.184;9.162;2023-07-20T14:48:03;26.40;90.60
11812;DHT22;5963;50.184;9.162;2023-07-20T14:50:34;26.00;91.40
11812;DHT22;5963;50.184;9.162;2023-07-20T14:53:07;25.90;91.60
11812;DHT22;5963;50.184;9.162;2023-07-20T14:55:50;26.10;92.40
11812;DHT22;5963;50.184;9.162;2023-07-20T14:58:20;26.30;91.40
11812;DHT22;5963;50.184;9.162;2023-07-20T15:01:06;26.40;90.80
11812;DHT22;5963;50.184;9.162;2023-07-20T15:03:39;26.20;90.70
11812;DHT22;5963;50.184;9.162;2023-07-20T15:06:21;26.30;91.00
11812;DHT22;5963;50.184;9.162;2023-07-20T15:09:07;26.50;90.70
11812;DHT22;5963;50.184;9.162;2023-07-20T15:12:00;26.60;91.10
11812;DHT22;5963;50.184;9.162;2023-07-20T15:14:33;26.40;91.70
11812;DHT22;5963;50.184;9.162;2023-07-20T15:17:07;26.40;91.10
11812;DHT22;5963;50.184;9.162;2023-07-20T15:19:39;26.20;91.00
11812;DHT22;5963;50.184;9.162;2023-07-20T15:22:11;26.10;91.10
11812;DHT22;5963;50.184;9.162;2023-07-20T15:24:44;26.30;91.20
11812;DHT22;5963;50.184;9.162;2023-07-20T15:27:26;26.80;91.10
11812;DHT22;5963;50.184;9.162;2023-07-20T15:29:57;26.90;90.10
11812;DHT22;5963;50.184;9.162;2023-07-20T15:32:29;26.90;90.30
11812;DHT22;5963;50.184;9.162;2023-07-20T15:35:08;26.80;90.80
11812;DHT22;5963;50.184;9.162;2023-07-20T15:37:42;26.70;91.20
11812;DHT22;5963;50.184;9.162;2023-07-20T15:40:16;26.50;90.90
11812;DHT22;5963;50.184;9.162;2023-07-20T15:42:55;26.50;90.40
11812;DHT22;5963;50.184;9.162;2023-07-20T15:45:30;26.50;90.50
11812;DHT22;5963;50.184;9.162;2023-07-20T15:48:13;26.30;90.10
11812;DHT22;5963;50.184;9.162;2023-07-20T15:51:00;26.20;90.30
11812;DHT22;5963;50.184;9.162;2023-07-20T15:53:36;26.10;90.30
11812;DHT22;5963;50.184;9.162;2023-07-20T15:56:06;25.80;90.60
11812;DHT22;5963;50.184;9.162;2023-07-20T15:58:39;25.60;90.60
11812;DHT22;5963;50.184;9.162;2023-07-20T16:01:11;25.60;90.90
11812;DHT22;5963;50.184;9.162;2023-07-20T16:03:41;25.60;91.20
11812;DHT22;5963;50.184;9.162;2023-07-20T16:06:27;25.60;91.30
11812;DHT22;5963;50.184;9.162;2023-07-20T16:09:11;25.80;90.90
11812;DHT22;5963;50.184;9.162;2023-07-20T16:11:55;25.50;91.00
11812;DHT22;5963;50.184;9.162;2023-07-20T16:14:34;25.40;91.00
11812;DHT22;5963;50.184;9.162;2023-07-20T16:17:15;25.40;90.80
11812;DHT22;5963;50.184;9.162;2023-07-20T16:19:46;25.40;91.10
11812;DHT22;5963;50.184;9.162;2023-07-20T16:22:20;25.10;91.00
11812;DHT22;5963;50.184;9.162;2023-07-20T16:24:54;25.10;91.30
11812;DHT22;5963;50.184;9.162;2023-07-20T16:27:27;25.20;91.40
11812;DHT22;5963;50.184;9.162;2023-07-20T16:30:10;25.20;91.50
11812;DHT22;5963;50.184;9.162;2023-07-20T16:32:43;25.10;91.90